Brookings, OR

10:10 PM PDT en Septiembre 27, 2016 (GMT -0700)
Gardner Ridge | | Change Station

Alt 1365 ft 42.11 °N, 124.21 °W | Updated 1 minute ago

Clear
Despejado
62.6 ° F
Sensación térmica 62.6 ° F
N
0.0
Viento Variable Viento desde SO
Gusts 0.0 mph

Hoy
Alta -- | Baja -- ° F
--% Posibilidad de precipitaciones
Ayer
Alta -- | Baja -- ° F
Precip. -- pul
Presión 29.98 pul
Visibilidad 9.0 Millas
Nubes Despejado
Punto de rocío 54 ° F
Humedad 73%
Precipitaciones 0.00 pul
Espesor de la nieve No disponible.
7:10 AM 7:04 PM
Creciente menguante, 7% visible
METAR KBOK 280456Z AUTO 00000KT 9SM CLR 13/12 A2995 RMK AO2 RAE0359 SLP152 P0000 T01330117
Presión 29.98 pul
Visibilidad 9.0 Millas
Nubes Despejado
Punto de rocío 54 ° F
Humedad 73%
Precipitaciones 0.00 pul
Espesor de la nieve No disponible.
7:10 AM 7:04 PM
Creciente menguante, 7% visible
METAR KBOK 280456Z AUTO 00000KT 9SM CLR 13/12 A2995 RMK AO2 RAE0359 SLP152 P0000 T01330117

10-Day Weather Forecast

Almanac

Astronomía

Sep. 27, 2016 Salida Puesta
Hora real
Crepúsculo civil
Crepúsculo náutico
Crepúsculo astronómico
Luna
Horas de luz
Horas de luz
Tomorrow will be .
, % of the Moon is Illuminated

Extremos de hoy

Máximos del estado Bajos del estado

Community

WunderPhotos

Upload Photos

1,942,213 ¡fotos cargadas!

WunderBlog® & News

Nearby

Calidad del aire

  Calidad del aire Índice AQ Contaminante
Not available.

Grosos de nieve

Estación Profundido Altura

Actividad de terremotos

Ciudad Distance Mag. Tiempo y dato
Magnitud mínima muestra es 2,5.

Temperaturas de aguas costeras

Lugar Temperatura

Stations

Estaciones meteorológicas cercanas

Ubicación de la estación Temp. Vientos helados Punto de rocío Humedad Viento Precip. Alt Actualizado Tipo
                   

Watches & Warnings

There are currently no watches in effect.